Time;durP1;ratioP1;P1;durP2;ratioP2;P2;SDS_P1;SDS_P2;PMS_P1;PMS_P2;Temp;Humidity;BMP_temperature;BMP_pressure;BME280_temperature;BME280_humidity;BME280_pressure;Samples;Min_cycle;Max_cycle;Signal;HPM_P1;HPM_P2
2021/03/23 00:04:08;;;;;;;2.28;1.15;;;6.30;99.90;;;;;;5135748;27;20099;-66
2021/03/23 00:06:39;;;;;;;3.83;1.00;;;6.30;99.90;;;;;;5127225;27;20498;-66
2021/03/23 00:09:55;;;;;;;3.03;1.08;;;6.30;99.90;;;;;;5135324;27;20142;-66
2021/03/23 00:16:44;;;;;;;3.22;1.30;;;6.30;99.90;;;;;;5137290;27;20058;-66
2021/03/23 00:19:13;;;;;;;2.65;1.23;;;6.30;99.90;;;;;;5122638;27;20043;-66
2021/03/23 00:21:46;;;;;;;2.80;1.38;;;6.30;99.90;;;;;;5137143;27;20042;-66
2021/03/23 00:24:20;;;;;;;3.47;1.10;;;6.30;99.90;;;;;;5106726;27;20047;-66
2021/03/23 00:26:53;;;;;;;4.70;1.40;;;6.30;99.90;;;;;;5137262;27;20039;-66
2021/03/23 00:29:22;;;;;;;3.67;1.95;;;6.30;99.90;;;;;;5078807;27;20048;-66
2021/03/23 00:31:53;;;;;;;2.72;1.48;;;6.30;99.90;;;;;;5136878;27;20080;-66
2021/03/23 00:34:26;;;;;;;5.82;1.90;;;6.30;99.90;;;;;;5136382;27;20045;-67
2021/03/23 00:36:53;;;;;;;6.95;1.58;;;6.30;99.90;;;;;;5136907;27;20041;-66
2021/03/23 00:39:24;;;;;;;4.00;1.85;;;6.30;99.90;;;;;;5136748;27;20092;-66
2021/03/23 00:41:53;;;;;;;3.65;1.60;;;6.30;99.90;;;;;;5136614;27;20534;-66
2021/03/23 00:44:22;;;;;;;3.95;1.55;;;6.30;99.90;;;;;;5136865;27;20055;-66
2021/03/23 00:46:54;;;;;;;4.82;1.60;;;6.30;99.90;;;;;;5136864;27;20042;-66
2021/03/23 00:49:26;;;;;;;4.05;1.30;;;6.30;99.90;;;;;;5095912;28;20040;-66
2021/03/23 00:51:57;;;;;;;4.28;1.52;;;6.30;99.90;;;;;;5133124;27;20057;-66
2021/03/23 00:54:26;;;;;;;3.42;1.63;;;6.30;99.90;;;;;;5136555;27;20039;-67
2021/03/23 00:56:56;;;;;;;3.25;1.15;;;6.30;99.90;;;;;;5136451;27;20050;-67
2021/03/23 00:59:28;;;;;;;3.25;1.27;;;6.30;99.90;;;;;;5136611;27;20047;-67
2021/03/23 01:01:55;;;;;;;4.55;1.80;;;6.40;99.90;;;;;;5136156;27;20047;-67
2021/03/23 01:04:21;;;;;;;2.80;1.27;;;6.40;99.90;;;;;;5118205;27;20107;-67
2021/03/23 01:06:51;;;;;;;4.20;1.63;;;6.30;99.90;;;;;;5135251;27;20463;-67
2021/03/23 01:09:22;;;;;;;3.88;1.52;;;6.40;99.90;;;;;;5055528;28;20476;-67
2021/03/23 01:11:53;;;;;;;4.03;1.58;;;6.30;99.90;;;;;;5080420;28;20044;-67
2021/03/23 01:14:21;;;;;;;4.82;1.60;;;6.30;99.90;;;;;;5089730;28;20044;-67
2021/03/23 01:16:51;;;;;;;2.97;1.45;;;6.40;99.90;;;;;;5078835;28;20071;-67
2021/03/23 01:19:29;;;;;;;2.33;1.15;;;6.30;99.90;;;;;;5076237;28;20049;-67
2021/03/23 01:21:56;;;;;;;2.40;1.17;;;6.30;99.90;;;;;;5074668;28;20094;-67
2021/03/23 01:24:28;;;;;;;2.20;1.20;;;6.30;99.90;;;;;;5075148;28;20049;-67
2021/03/23 01:26:55;;;;;;;2.50;1.15;;;6.30;99.90;;;;;;5092147;28;20426;-66
2021/03/23 01:29:28;;;;;;;3.28;1.23;;;6.30;99.90;;;;;;5088560;28;20044;-67
2021/03/23 01:32:03;;;;;;;5.53;1.20;;;6.30;99.90;;;;;;5075464;28;20040;-67
2021/03/23 01:42:10;;;;;;;2.17;1.05;;;6.30;99.90;;;;;;5091136;28;20062;-68
2021/03/23 01:45:07;;;;;;;3.42;1.27;;;6.30;99.90;;;;;;5089845;28;20046;-68
2021/03/23 01:47:35;;;;;;;4.93;1.38;;;6.30;99.90;;;;;;5059627;28;20150;-67
2021/03/23 01:50:23;;;;;;;2.80;1.23;;;6.30;99.90;;;;;;5077733;28;20469;-67
2021/03/23 01:56:54;;;;;;;3.05;1.20;;;6.20;99.90;;;;;;5080662;28;20433;-67
2021/03/23 01:59:23;;;;;;;3.83;1.73;;;6.20;99.90;;;;;;5072529;28;20033;-67
2021/03/23 02:01:52;;;;;;;3.22;1.67;;;6.10;99.90;;;;;;5072993;28;20041;-67
2021/03/23 02:04:21;;;;;;;5.93;1.65;;;6.10;99.90;;;;;;5036688;28;20045;-67
2021/03/23 02:07:07;;;;;;;4.25;1.65;;;6.10;99.90;;;;;;5084443;28;20048;-65
2021/03/23 02:10:01;;;;;;;3.70;1.67;;;6.00;99.90;;;;;;5129091;27;20043;-66
2021/03/23 02:19:27;;;;;;;4.43;1.90;;;5.90;99.90;;;;;;5130542;27;20052;-66
2021/03/23 02:21:54;;;;;;;7.68;2.30;;;5.80;99.90;;;;;;5134095;27;20039;-66
2021/03/23 02:24:26;;;;;;;5.82;2.13;;;5.70;99.90;;;;;;5123486;27;20046;-66
2021/03/23 02:26:53;;;;;;;4.20;2.08;;;5.80;99.90;;;;;;5093859;28;20050;-66
2021/03/23 02:29:26;;;;;;;4.75;2.20;;;5.70;99.90;;;;;;5134646;27;20039;-66
2021/03/23 02:31:55;;;;;;;6.35;2.40;;;5.60;99.90;;;;;;5134631;27;20066;-67
2021/03/23 02:34:28;;;;;;;6.75;2.35;;;5.60;99.90;;;;;;5134550;27;20092;-67
2021/03/23 02:36:54;;;;;;;;;;;5.60;99.90;;;;;;5094214;28;20036;-67
2021/03/23 02:39:32;;;;;;;2.42;1.30;;;5.60;99.90;;;;;;5135021;27;19920;-67
2021/03/23 02:42:00;;;;;;;4.00;1.85;;;5.60;99.90;;;;;;5134992;27;20043;-67
2021/03/23 02:44:46;;;;;;;5.82;2.13;;;5.50;99.90;;;;;;5134214;27;20481;-67
2021/03/23 02:47:23;;;;;;;6.25;2.20;;;5.50;99.90;;;;;;5080954;27;20047;-67
2021/03/23 02:50:01;;;;;;;4.13;2.03;;;5.60;99.90;;;;;;5134401;27;20042;-67
2021/03/23 02:52:42;;;;;;;8.18;2.35;;;5.50;99.90;;;;;;5120084;27;20155;-67
2021/03/23 02:59:24;;;;;;;3.78;1.75;;;5.60;99.90;;;;;;5114481;27;20072;-67
2021/03/23 03:01:56;;;;;;;4.10;1.90;;;5.60;99.90;;;;;;5134448;27;20162;-67
2021/03/23 03:04:24;;;;;;;4.45;2.03;;;5.60;99.90;;;;;;5120412;28;20043;-67
2021/03/23 03:07:31;;;;;;;3.53;2.13;;;5.70;99.90;;;;;;5134422;28;20118;-67
2021/03/23 03:14:24;;;;;;;7.80;2.30;;;5.70;99.90;;;;;;5129799;28;20123;-67
2021/03/23 03:17:05;;;;;;;5.35;2.08;;;5.80;99.90;;;;;;5124877;28;20047;-66
2021/03/23 03:19:32;;;;;;;6.93;2.30;;;5.80;99.90;;;;;;5134451;28;20039;-67
2021/03/23 03:21:58;;;;;;;6.10;2.53;;;5.80;99.90;;;;;;5133950;28;20046;-67
2021/03/23 03:24:24;;;;;;;9.25;2.53;;;5.80;99.90;;;;;;5134112;28;20043;-67
2021/03/23 03:26:56;;;;;;;5.53;2.63;;;5.90;99.90;;;;;;5134125;28;20092;-67
2021/03/23 03:29:30;;;;;;;6.45;2.35;;;5.80;99.90;;;;;;5134114;28;20043;-67
2021/03/23 03:32:07;;;;;;;5.43;2.45;;;5.80;99.90;;;;;;5093272;28;20044;-67
2021/03/23 03:34:45;;;;;;;4.72;2.47;;;5.90;99.90;;;;;;5104425;28;20039;-67
2021/03/23 03:37:13;;;;;;;5.70;2.80;;;5.90;99.90;;;;;;5096480;28;20044;-67
2021/03/23 03:39:46;;;;;;;8.00;2.90;;;5.90;99.90;;;;;;5133751;28;20493;-67
2021/03/23 03:42:13;;;;;;;6.07;2.78;;;5.90;99.90;;;;;;5096677;28;20040;-67
2021/03/23 03:52:03;;;;;;;6.72;3.22;;;5.90;99.90;;;;;;5114542;28;20030;-67
2021/03/23 03:55:00;;;;;;;5.43;2.70;;;5.90;99.90;;;;;;5133702;28;20047;-67
2021/03/23 04:08:08;;;;;;;5.90;2.95;;;5.90;99.90;;;;;;5119156;27;20104;-67
2021/03/23 04:14:29;;;;;;;7.20;3.13;;;5.90;99.90;;;;;;5129805;27;20029;-67
2021/03/23 04:17:04;;;;;;;8.63;3.58;;;6.00;99.90;;;;;;5131282;27;20046;-67
2021/03/23 04:19:36;;;;;;;7.57;2.95;;;5.90;99.90;;;;;;5129837;27;20035;-67
2021/03/23 04:22:04;;;;;;;5.40;3.33;;;6.00;99.90;;;;;;5097349;27;20044;-67
2021/03/23 04:24:35;;;;;;;7.38;3.05;;;6.00;99.90;;;;;;5137258;27;20042;-67
2021/03/23 04:27:03;;;;;;;8.60;3.58;;;6.00;99.90;;;;;;5136923;27;20039;-67
2021/03/23 04:29:36;;;;;;;9.20;3.50;;;6.00;99.90;;;;;;5136967;27;20448;-67
2021/03/23 04:32:03;;;;;;;7.18;3.22;;;5.90;99.90;;;;;;5134507;27;20046;-67
2021/03/23 04:34:38;;;;;;;12.80;4.03;;;6.00;99.90;;;;;;5137382;27;20055;-67
2021/03/23 04:37:05;;;;;;;8.88;3.67;;;5.90;99.90;;;;;;5097280;28;20071;-66
2021/03/23 04:47:00;;;;;;;8.07;3.88;;;6.00;99.90;;;;;;5131404;27;20119;-66
2021/03/23 04:49:32;;;;;;;10.73;3.47;;;6.00;99.90;;;;;;5137001;27;20065;-67
2021/03/23 04:52:02;;;;;;;14.15;4.93;;;6.00;99.90;;;;;;5097280;28;20118;-67
2021/03/23 04:54:33;;;;;;;10.20;4.60;;;6.00;99.90;;;;;;5095696;28;20036;-67
2021/03/23 04:57:01;;;;;;;10.15;4.60;;;6.00;99.90;;;;;;5126691;27;20122;-67
2021/03/23 04:59:33;;;;;;;12.02;4.88;;;6.00;99.90;;;;;;5136635;27;20039;-67
2021/03/23 05:02:00;;;;;;;9.80;4.53;;;6.00;99.90;;;;;;5109929;27;20055;-67
2021/03/23 05:04:27;;;;;;;11.02;4.80;;;6.00;99.90;;;;;;5118064;27;20058;-67
2021/03/23 05:07:01;;;;;;;10.38;4.85;;;6.00;99.90;;;;;;5117762;27;20046;-67
2021/03/23 05:09:32;;;;;;;10.30;4.53;;;6.00;99.90;;;;;;5121487;27;20494;-67
2021/03/23 05:12:00;;;;;;;11.35;5.18;;;6.00;99.90;;;;;;5132270;27;20461;-67
2021/03/23 05:14:57;;;;;;;10.20;5.00;;;6.00;99.90;;;;;;5117729;27;20114;-67
2021/03/23 05:17:39;;;;;;;10.48;4.65;;;6.00;99.90;;;;;;5083109;27;20039;-66
2021/03/23 05:24:30;;;;;;;11.73;4.15;;;5.90;99.90;;;;;;5135913;27;20042;-66
2021/03/23 05:27:04;;;;;;;9.18;4.05;;;5.90;99.90;;;;;;5135773;27;20542;-65
2021/03/23 05:30:21;;;;;;;11.82;4.75;;;5.90;99.90;;;;;;5134758;27;20082;-66
2021/03/23 05:33:14;;;;;;;12.13;4.57;;;5.90;99.90;;;;;;5130951;27;20482;-66
2021/03/23 05:35:56;;;;;;;17.63;5.65;;;5.80;99.90;;;;;;5124935;27;20045;-67
2021/03/23 05:42:06;;;;;;;15.05;6.38;;;5.70;99.90;;;;;;5113499;27;20095;-66
2021/03/23 05:45:16;;;;;;;16.08;7.03;;;5.70;99.90;;;;;;5135505;27;20043;-66
2021/03/23 05:48:02;;;;;;;17.35;7.50;;;5.70;99.90;;;;;;5120738;27;20493;-66
2021/03/23 05:54:39;;;;;;;14.20;6.57;;;5.70;99.90;;;;;;5117183;27;20465;-66
2021/03/23 05:57:24;;;;;;;21.85;7.97;;;5.70;99.90;;;;;;5115393;27;20471;-66
2021/03/23 06:00:07;;;;;;;24.60;9.18;;;5.70;99.90;;;;;;5135044;27;20046;-66
2021/03/23 06:07:06;;;;;;;32.50;10.02;;;5.60;99.90;;;;;;5134679;27;20084;-66
2021/03/23 06:09:52;;;;;;;28.05;12.15;;;5.60;99.90;;;;;;5126585;27;20063;-67
2021/03/23 06:16:27;;;;;;;25.90;10.23;;;5.60;99.90;;;;;;5119993;27;20030;-69
2021/03/23 06:19:32;;;;;;;29.45;10.98;;;5.60;99.90;;;;;;5125935;27;20039;-65
2021/03/23 06:25:38;;;;;;;23.77;8.25;;;5.60;99.90;;;;;;5134715;27;19957;-65
2021/03/23 06:32:26;;;;;;;26.45;8.25;;;5.70;99.90;;;;;;5115483;27;20038;-68
2021/03/23 06:35:17;;;;;;;30.52;11.23;;;5.70;99.90;;;;;;5099281;27;20055;-68
2021/03/23 06:37:53;;;;;;;27.48;10.80;;;5.70;99.90;;;;;;5134754;27;20199;-69
2021/03/23 06:44:38;;;;;;;29.67;10.40;;;5.70;99.90;;;;;;5129522;27;20042;-69
2021/03/23 06:47:39;;;;;;;;;;;5.70;99.90;;;;;;5132792;27;20406;-69
2021/03/23 06:54:33;;;;;;;30.33;9.50;;;5.70;99.90;;;;;;5017118;28;20528;-71
2021/03/23 07:01:09;;;;;;;28.40;9.45;;;5.80;99.90;;;;;;5022013;28;20073;-69
2021/03/23 07:10:53;;;;;;;30.10;9.57;;;5.90;99.90;;;;;;5038406;28;20059;-70
2021/03/23 07:17:13;;;;;;;33.05;12.10;;;6.00;99.90;;;;;;5073778;28;20039;-69
2021/03/23 07:20:10;;;;;;;32.10;11.43;;;6.00;99.90;;;;;;5110606;28;20606;-68
2021/03/23 07:22:44;;;;;;;32.95;12.60;;;6.10;99.90;;;;;;5082711;28;20390;-69
2021/03/23 07:29:34;;;;;;;32.90;12.23;;;6.10;99.90;;;;;;5098400;28;20039;-69
2021/03/23 07:32:12;;;;;;;31.00;12.15;;;6.20;99.90;;;;;;5107452;28;20112;-68
2021/03/23 07:35:05;;;;;;;38.70;14.20;;;6.20;99.90;;;;;;5108245;28;20050;-67
2021/03/23 07:38:03;;;;;;;34.70;13.65;;;6.30;99.90;;;;;;5100333;28;20081;-67
2021/03/23 07:44:38;;;;;;;41.15;13.10;;;6.30;99.90;;;;;;5113921;28;20039;-71
2021/03/23 07:47:27;;;;;;;35.15;14.27;;;6.40;99.90;;;;;;5117202;28;20043;-70
2021/03/23 07:50:24;;;;;;;35.83;13.70;;;6.50;99.90;;;;;;5116906;28;20035;-67
2021/03/23 07:57:04;;;;;;;31.50;12.88;;;6.60;99.90;;;;;;5116972;28;20065;-67
2021/03/23 07:59:54;;;;;;;28.27;11.82;;;6.70;99.90;;;;;;5116872;28;20114;-68
2021/03/23 08:10:01;;;;;;;26.08;11.57;;;6.80;99.90;;;;;;5093812;27;20039;-69
2021/03/23 08:20:09;;;;;;;23.00;10.82;;;7.00;99.90;;;;;;5096388;28;20044;-66
2021/03/23 08:22:55;;;;;;;30.52;12.30;;;7.10;99.90;;;;;;5082770;28;20056;-68
2021/03/23 08:29:45;;;;;;;30.20;12.10;;;7.10;99.90;;;;;;5132177;27;20472;-68
2021/03/23 08:37:03;;;;;;;23.95;11.35;;;7.20;99.90;;;;;;5095878;28;20031;-67
2021/03/23 08:39:35;;;;;;;25.00;12.98;;;7.20;99.90;;;;;;5128998;27;20035;-67
2021/03/23 08:42:27;;;;;;;25.35;11.93;;;7.20;99.90;;;;;;5096734;28;20089;-66
2021/03/23 08:45:14;;;;;;;21.63;11.07;;;7.30;99.90;;;;;;5097478;27;20140;-66
2021/03/23 08:48:05;;;;;;;27.52;11.57;;;7.30;99.90;;;;;;5136640;27;20054;-68
2021/03/23 09:02:04;;;;;;;23.23;11.95;;;7.40;99.90;;;;;;5118176;27;20071;-66
2021/03/23 09:04:58;;;;;;;25.70;10.90;;;7.50;99.90;;;;;;5136552;27;20050;-67
2021/03/23 09:07:43;;;;;;;22.40;11.40;;;7.60;99.90;;;;;;5129588;27;20040;-67
2021/03/23 09:10:35;;;;;;;25.08;12.30;;;7.60;99.90;;;;;;5102060;27;20047;-67
2021/03/23 09:13:02;;;;;;;22.60;11.18;;;7.60;99.90;;;;;;5070814;28;20054;-66
2021/03/23 09:19:45;;;;;;;21.42;11.25;;;7.70;99.90;;;;;;5095025;28;20039;-68
2021/03/23 09:22:30;;;;;;;19.20;10.57;;;7.70;99.90;;;;;;5056727;28;20037;-67
2021/03/23 09:25:33;;;;;;;21.77;9.55;;;7.70;99.90;;;;;;5094848;28;20127;-68
2021/03/23 09:32:19;;;;;;;17.20;9.15;;;7.70;99.90;;;;;;5077495;28;20051;-67
2021/03/23 09:35:20;;;;;;;20.63;10.60;;;7.90;99.90;;;;;;5092977;28;20052;-68
2021/03/23 09:38:29;;;;;;;26.00;11.98;;;7.90;99.90;;;;;;5094981;28;20040;-68
2021/03/23 09:44:58;;;;;;;22.02;10.48;;;8.00;99.90;;;;;;5094862;28;20051;-67
2021/03/23 09:47:56;;;;;;;20.48;10.55;;;8.10;99.90;;;;;;5059648;28;20065;-68
2021/03/23 09:54:34;;;;;;;23.52;12.20;;;8.20;99.90;;;;;;5061351;28;20075;-67
2021/03/23 09:57:23;;;;;;;19.92;9.82;;;8.20;99.90;;;;;;5052864;28;20036;-68
2021/03/23 10:00:01;;;;;;;21.00;10.75;;;8.30;99.90;;;;;;5091929;28;20495;-67
2021/03/23 10:09:37;;;;;;;21.15;10.73;;;8.40;99.90;;;;;;5085039;28;20040;-65
2021/03/23 10:12:33;;;;;;;20.02;10.23;;;8.50;99.90;;;;;;5107476;28;20055;-70
2021/03/23 10:15:19;;;;;;;18.40;8.82;;;8.60;99.90;;;;;;5081053;28;20047;-65
2021/03/23 10:17:47;;;;;;;16.45;9.63;;;8.70;99.90;;;;;;5114875;28;20067;-66
2021/03/23 10:20:25;;;;;;;24.50;12.85;;;8.80;99.90;;;;;;5084324;28;20062;-65
2021/03/23 10:27:07;;;;;;;19.02;10.27;;;8.80;99.90;;;;;;5114004;28;20039;-67
2021/03/23 10:30:00;;;;;;;19.40;9.85;;;8.80;99.90;;;;;;5114250;28;20060;-67
2021/03/23 10:32:54;;;;;;;26.35;12.35;;;8.90;99.90;;;;;;5114224;28;20043;-68
2021/03/23 10:35:37;;;;;;;25.85;13.30;;;8.90;99.90;;;;;;5082955;28;20063;-67
2021/03/23 10:42:18;;;;;;;31.30;13.93;;;8.90;99.90;;;;;;5096892;28;20165;-67
2021/03/23 10:44:46;;;;;;;24.95;12.25;;;9.00;99.90;;;;;;5103401;28;20035;-66
2021/03/23 10:47:34;;;;;;;30.42;14.13;;;9.10;99.90;;;;;;5073954;28;20036;-66
2021/03/23 10:50:23;;;;;;;28.02;14.85;;;9.10;99.90;;;;;;5113841;28;20040;-66
2021/03/23 11:07:56;;;;;;;22.25;11.57;;;9.30;99.90;;;;;;5112637;28;20478;-66
2021/03/23 11:14:46;;;;;;;15.73;8.77;;;9.40;99.90;;;;;;5126650;28;20058;-67
2021/03/23 11:17:18;;;;;;;17.58;8.90;;;9.50;99.90;;;;;;5134217;28;20446;-66
2021/03/23 11:19:59;;;;;;;22.45;11.98;;;9.60;99.90;;;;;;5119783;27;20051;-67
2021/03/23 11:22:40;;;;;;;23.23;10.43;;;9.80;99.90;;;;;;5101514;27;20384;-66
2021/03/23 11:29:43;;;;;;;19.23;9.75;;;10.10;99.90;;;;;;5138178;27;20045;-66
2021/03/23 11:32:16;;;;;;;19.98;9.93;;;10.30;99.90;;;;;;5136357;27;20042;-67
2021/03/23 11:34:44;;;;;;;;;;;10.40;99.90;;;;;;5120260;27;20047;-66
2021/03/23 11:37:16;;;;;;;19.38;10.55;;;10.50;99.90;;;;;;5137686;27;19919;-66
2021/03/23 11:39:43;;;;;;;22.98;13.02;;;10.50;99.90;;;;;;5137804;27;20050;-67
2021/03/23 11:42:29;;;;;;;26.52;12.60;;;10.60;99.90;;;;;;5137257;27;20070;-69
2021/03/23 11:45:37;;;;;;;23.25;12.27;;;10.60;99.90;;;;;;5100402;27;20079;-68
2021/03/23 11:48:11;;;;;;;22.25;11.82;;;10.60;99.90;;;;;;5134591;27;20138;-67
2021/03/23 11:54:46;;;;;;;25.05;12.48;;;10.60;99.90;;;;;;5137495;27;20030;-67
2021/03/23 11:57:14;;;;;;;20.90;11.65;;;10.50;99.90;;;;;;5133346;27;20110;-67
2021/03/23 12:00:15;;;;;;;25.27;13.95;;;10.60;99.90;;;;;;5137779;27;20058;-68
2021/03/23 12:07:17;;;;;;;27.80;13.68;;;10.50;99.90;;;;;;5137417;27;20123;-69
2021/03/23 12:10:21;;;;;;;21.63;12.25;;;10.40;99.90;;;;;;5126873;27;20542;-67
2021/03/23 12:25:05;;;;;;;21.17;11.55;;;10.70;99.90;;;;;;5089203;28;20043;-68
2021/03/23 12:27:40;;;;;;;19.60;10.23;;;10.60;99.90;;;;;;5075406;28;20048;-67
2021/03/23 12:30:14;;;;;;;21.63;11.45;;;10.70;99.90;;;;;;5077788;28;20101;-67
2021/03/23 12:33:09;;;;;;;23.27;12.70;;;10.70;99.90;;;;;;5096129;28;20039;-67
2021/03/23 12:35:42;;;;;;;23.52;13.35;;;10.80;99.90;;;;;;5096201;28;20094;-67
2021/03/23 12:42:35;;;;;;;20.92;10.98;;;10.90;99.90;;;;;;5095362;28;20035;-67
2021/03/23 12:45:08;;;;;;;;;;;10.90;99.90;;;;;;5095223;28;20139;-67
2021/03/23 12:47:37;;;;;;;20.20;10.88;;;11.00;99.90;;;;;;5094997;28;19927;-66
2021/03/23 12:50:17;;;;;;;24.58;12.73;;;11.00;99.90;;;;;;5074526;28;20040;-67
2021/03/23 12:53:05;;;;;;;24.48;12.30;;;11.00;99.90;;;;;;5091708;28;20051;-67
2021/03/23 12:55:58;;;;;;;25.60;12.32;;;11.00;99.90;;;;;;5079023;28;20036;-66
2021/03/23 13:02:42;;;;;;;18.88;11.00;;;11.20;99.90;;;;;;5095301;28;20039;-67
2021/03/23 13:05:21;;;;;;;28.15;14.65;;;11.10;99.90;;;;;;5093987;28;20068;-68
2021/03/23 13:08:24;;;;;;;33.92;16.75;;;11.00;99.90;;;;;;5095465;28;20040;-67
2021/03/23 13:10:53;;;;;;;32.72;16.80;;;10.90;99.90;;;;;;5081521;28;20447;-67
2021/03/23 13:17:36;;;;;;;31.88;15.23;;;10.70;99.90;;;;;;5122975;27;20062;-66
2021/03/23 13:20:07;;;;;;;27.55;13.88;;;10.70;99.90;;;;;;5130854;27;20401;-67
2021/03/23 13:22:46;;;;;;;30.83;14.75;;;10.70;99.90;;;;;;5118011;27;20055;-66
2021/03/23 13:25:37;;;;;;;23.52;13.23;;;10.80;99.90;;;;;;5135802;27;20039;-65
2021/03/23 13:31:52;;;;;;;30.77;13.95;;;10.80;99.90;;;;;;5124230;27;20076;-65
2021/03/23 13:37:38;;;;;;;27.80;13.60;;;10.90;99.90;;;;;;5135607;27;19920;-67
2021/03/23 13:40:14;;;;;;;37.28;17.48;;;11.00;99.90;;;;;;5095011;28;20040;-66
2021/03/23 13:42:40;;;;;;;31.65;15.27;;;10.90;99.90;;;;;;5109688;27;20523;-66
2021/03/23 13:45:21;;;;;;;34.97;17.60;;;10.90;99.90;;;;;;5135888;27;20043;-65
2021/03/23 13:48:22;;;;;;;36.22;17.55;;;10.90;99.90;;;;;;5078873;27;20123;-66
2021/03/23 13:55:14;;;;;;;29.73;13.18;;;10.90;99.90;;;;;;5135333;27;20038;-66
2021/03/23 13:57:43;;;;;;;29.08;15.05;;;10.90;99.90;;;;;;5107723;27;20047;-65
2021/03/23 14:00:15;;;;;;;23.90;13.48;;;10.90;99.90;;;;;;5094524;28;20036;-66
2021/03/23 14:02:44;;;;;;;25.48;13.70;;;10.90;99.90;;;;;;5128485;27;20036;-66
2021/03/23 14:05:14;;;;;;;28.00;14.10;;;10.90;99.90;;;;;;5076403;28;20063;-66
2021/03/23 14:07:46;;;;;;;28.00;13.48;;;11.00;99.90;;;;;;5135433;27;20379;-68
2021/03/23 14:10:26;;;;;;;29.00;15.20;;;10.90;99.90;;;;;;5135226;27;20040;-67
2021/03/23 14:13:10;;;;;;;30.77;15.30;;;11.00;99.90;;;;;;5116646;27;20054;-66
2021/03/23 14:15:37;;;;;;;26.63;13.38;;;11.00;99.90;;;;;;5133467;27;20066;-66
2021/03/23 14:22:03;;;;;;;25.00;13.10;;;11.00;99.90;;;;;;5134885;27;20030;-65
2021/03/23 14:24:32;;;;;;;24.48;11.55;;;11.20;99.90;;;;;;5134992;27;20432;-66
2021/03/23 14:27:01;;;;;;;31.00;14.48;;;11.30;99.90;;;;;;5094219;28;20042;-66
2021/03/23 14:29:33;;;;;;;28.27;15.02;;;11.30;99.90;;;;;;5114501;27;20039;-65
2021/03/23 14:32:07;;;;;;;27.45;14.80;;;11.20;99.90;;;;;;5125004;27;20114;-66
2021/03/23 14:34:35;;;;;;;25.80;13.88;;;11.20;99.90;;;;;;5134689;27;20064;-66
2021/03/23 14:37:15;;;;;;;29.60;13.65;;;11.20;99.90;;;;;;5134505;27;20045;-68
2021/03/23 14:40:35;;;;;;;29.40;15.32;;;11.20;99.90;;;;;;5088622;27;20032;-66
2021/03/23 14:47:04;;;;;;;22.58;11.45;;;11.20;99.90;;;;;;5132539;27;20034;-66
2021/03/23 14:49:55;;;;;;;22.67;12.00;;;11.30;99.90;;;;;;5134600;27;20057;-66
2021/03/23 14:52:52;;;;;;;27.42;13.13;;;11.30;99.90;;;;;;5134078;27;20080;-66
2021/03/23 14:55:30;;;;;;;26.98;13.35;;;11.20;99.90;;;;;;5105422;27;20035;-65
2021/03/23 14:58:01;;;;;;;25.33;12.80;;;11.30;99.90;;;;;;5134134;27;20043;-67
2021/03/23 15:12:12;;;;;;;23.17;12.57;;;11.30;99.90;;;;;;5128005;28;20055;-69
2021/03/23 15:14:41;;;;;;;25.92;13.40;;;11.30;99.90;;;;;;5116536;28;20126;-67
2021/03/23 15:22:10;;;;;;;22.17;11.65;;;11.30;99.90;;;;;;5095519;28;20035;-72
2021/03/23 15:24:40;;;;;;;19.27;11.07;;;11.30;99.90;;;;;;5103880;28;20401;-69
2021/03/23 15:27:12;;;;;;;25.35;13.18;;;11.30;99.90;;;;;;5113551;28;20036;-69
2021/03/23 15:33:19;;;;;;;22.80;11.90;;;11.20;99.90;;;;;;5091814;28;20543;-67
2021/03/23 15:39:54;;;;;;;25.98;13.70;;;11.20;99.90;;;;;;5110967;28;20034;-67
2021/03/23 15:42:47;;;;;;;28.42;14.10;;;11.20;99.90;;;;;;5101060;28;20546;-67
2021/03/23 15:49:44;;;;;;;21.85;12.07;;;11.10;99.90;;;;;;5104208;28;20390;-67
2021/03/23 15:52:25;;;;;;;23.52;12.25;;;11.00;99.90;;;;;;5112712;28;20047;-67
2021/03/23 15:55:29;;;;;;;28.13;13.43;;;11.00;99.90;;;;;;5106237;28;20043;-66
2021/03/23 15:58:09;;;;;;;28.00;14.10;;;11.00;99.90;;;;;;5113087;28;20173;-67
2021/03/23 16:00:37;;;;;;;27.35;13.43;;;10.90;99.90;;;;;;5111996;28;20039;-67
2021/03/23 16:03:31;;;;;;;29.65;14.98;;;10.90;99.90;;;;;;5103997;28;20043;-66
2021/03/23 16:09:53;;;;;;;25.20;12.52;;;10.80;99.90;;;;;;5116645;27;20161;-69
2021/03/23 16:12:50;;;;;;;21.60;11.63;;;10.80;99.90;;;;;;5116012;28;20533;-67
2021/03/23 16:15:48;;;;;;;26.67;12.75;;;10.80;99.90;;;;;;5089128;28;20051;-68
2021/03/23 16:18:59;;;;;;;24.30;12.70;;;10.70;99.90;;;;;;5069185;28;20050;-68
2021/03/23 16:22:16;;;;;;;22.70;10.93;;;10.70;99.90;;;;;;5108072;28;20506;-67
2021/03/23 16:25:08;;;;;;;22.85;11.13;;;10.70;99.90;;;;;;5115726;28;20494;-67
2021/03/23 16:27:59;;;;;;;24.25;11.52;;;10.70;99.90;;;;;;5101747;28;20563;-68
2021/03/23 16:30:45;;;;;;;27.75;12.27;;;10.60;99.90;;;;;;5103338;28;20127;-66
2021/03/23 16:37:27;;;;;;;25.75;11.30;;;10.60;99.90;;;;;;5116182;28;20092;-65
2021/03/23 16:40:19;;;;;;;23.35;11.50;;;10.60;99.90;;;;;;5115370;28;20058;-70
2021/03/23 16:47:16;;;;;;;26.08;11.73;;;10.50;99.90;;;;;;5115307;28;20467;-67
2021/03/23 16:50:28;;;;;;;23.00;10.77;;;10.50;99.90;;;;;;5081976;28;20079;-69
2021/03/23 16:57:18;;;;;;;24.38;11.52;;;10.40;99.90;;;;;;5115130;28;20030;-68
2021/03/23 17:08:04;;;;;;;26.13;12.30;;;10.30;99.90;;;;;;5093266;28;20372;-67
2021/03/23 17:11:08;;;;;;;26.33;13.35;;;10.30;99.90;;;;;;5105514;28;20459;-67
2021/03/23 17:14:39;;;;;;;36.30;16.60;;;10.20;99.90;;;;;;5100845;28;20047;-68
2021/03/23 17:17:32;;;;;;;32.45;16.52;;;10.10;99.90;;;;;;5113171;27;20063;-67
2021/03/23 17:20:50;;;;;;;31.23;14.15;;;10.00;99.90;;;;;;5106664;27;20112;-69
2021/03/23 17:23:48;;;;;;;32.22;14.00;;;10.00;99.90;;;;;;5106831;27;20051;-68
2021/03/23 17:27:20;;;;;;;27.25;12.85;;;10.00;99.90;;;;;;5086756;28;20055;-68
2021/03/23 17:37:50;;;;;;;28.13;12.50;;;9.90;99.90;;;;;;5085650;27;20435;-67
2021/03/23 17:40:51;;;;;;;25.05;12.27;;;9.80;99.90;;;;;;5073659;28;20417;-67
2021/03/23 17:44:32;;;;;;;25.33;12.52;;;9.80;99.90;;;;;;5117402;27;20390;-67
2021/03/23 17:47:25;;;;;;;22.60;11.18;;;9.70;99.90;;;;;;5106238;27;20051;-67
2021/03/23 17:54:32;;;;;;;17.52;9.60;;;9.70;99.90;;;;;;5129330;27;20409;-68
2021/03/23 17:57:38;;;;;;;23.92;10.60;;;9.70;99.90;;;;;;5114806;27;20146;-67
2021/03/23 18:00:33;;;;;;;25.50;11.38;;;9.60;99.90;;;;;;5094953;27;20512;-68
2021/03/23 18:07:24;;;;;;;22.17;11.20;;;9.60;99.90;;;;;;5135016;27;20076;-68
2021/03/23 18:13:55;;;;;;;23.52;11.70;;;9.50;99.90;;;;;;5134846;27;20092;-67
2021/03/23 18:16:59;;;;;;;25.35;10.80;;;9.50;99.90;;;;;;5118062;27;20051;-67
2021/03/23 18:20:35;;;;;;;24.17;10.95;;;9.50;99.90;;;;;;5070009;27;20097;-67
2021/03/23 18:24:30;;;;;;;20.90;9.77;;;9.50;99.90;;;;;;5108510;27;20502;-67
2021/03/23 18:28:08;;;;;;;22.08;9.95;;;9.40;99.90;;;;;;5117747;27;20054;-67
2021/03/23 18:31:57;;;;;;;23.52;10.32;;;9.40;99.90;;;;;;5076235;28;20044;-66
2021/03/23 18:39:32;;;;;;;22.30;9.85;;;9.40;99.90;;;;;;5127120;27;20034;-67
2021/03/23 18:42:43;;;;;;;20.80;10.25;;;9.40;99.90;;;;;;5103350;27;20043;-68
2021/03/23 18:49:30;;;;;;;20.40;9.38;;;9.40;99.90;;;;;;5134361;27;20048;-68
2021/03/23 18:52:22;;;;;;;28.05;11.82;;;9.30;99.90;;;;;;5119517;27;20047;-69
2021/03/23 18:55:21;;;;;;;23.20;11.25;;;9.30;99.90;;;;;;5075317;27;20482;-68
2021/03/23 19:01:56;;;;;;;27.52;11.05;;;9.20;99.90;;;;;;5125332;27;20038;-67
2021/03/23 19:05:14;;;;;;;22.58;11.13;;;9.30;99.90;;;;;;5068927;27;20055;-66
2021/03/23 19:11:59;;;;;;;21.60;9.68;;;9.20;99.90;;;;;;5133894;27;20030;-67
2021/03/23 19:15:10;;;;;;;23.50;11.57;;;9.10;99.90;;;;;;5118991;28;20182;-67
2021/03/23 19:17:55;;;;;;;23.92;11.43;;;9.20;99.90;;;;;;5098261;28;20498;-67
2021/03/23 19:20:50;;;;;;;28.88;12.05;;;9.30;99.90;;;;;;5118763;28;20481;-67
2021/03/23 19:27:42;;;;;;;27.08;13.20;;;9.10;99.90;;;;;;5097544;28;20066;-67
2021/03/23 19:49:35;;;;;;;21.65;12.38;;;9.00;99.90;;;;;;5131153;27;20080;-68
2021/03/23 19:52:55;;;;;;;29.80;12.85;;;9.00;99.90;;;;;;5108845;27;20047;-67
2021/03/23 19:59:43;;;;;;;24.05;12.43;;;9.00;99.90;;;;;;5134127;27;20035;-67
2021/03/23 20:06:28;;;;;;;26.38;12.82;;;9.00;99.90;;;;;;5135753;27;20029;-68
2021/03/23 20:09:45;;;;;;;27.83;12.40;;;9.00;99.90;;;;;;5104624;27;20051;-67
2021/03/23 20:12:55;;;;;;;31.25;13.52;;;9.00;99.90;;;;;;5071661;27;20048;-69
2021/03/23 20:19:50;;;;;;;27.20;13.32;;;9.00;99.90;;;;;;5108193;27;20117;-68
2021/03/23 20:22:57;;;;;;;29.15;13.88;;;9.00;99.90;;;;;;5104801;27;20050;-68
2021/03/23 20:29:54;;;;;;;25.15;12.15;;;8.90;99.90;;;;;;5136627;27;20062;-68
2021/03/23 20:33:00;;;;;;;28.33;13.13;;;9.00;99.90;;;;;;5116077;27;20401;-67
2021/03/23 20:39:28;;;;;;;27.35;12.85;;;8.90;99.90;;;;;;5131175;27;20057;-67
2021/03/23 20:42:21;;;;;;;32.00;14.10;;;8.90;99.90;;;;;;5066688;28;20044;-68